Time;durP1;ratioP1;P1;durP2;ratioP2;P2;SDS_P1;SDS_P2;PMS_P1;PMS_P2;Temp;Humidity;BMP_temperature;BMP_pressure;BME280_temperature;BME280_humidity;BME280_pressure;Samples;Min_cycle;Max_cycle;Signal;HPM_P1;HPM_P2
2022/09/20 00:00:29;;;;;;;5.72;3.05;;;21.30;57.60;;;;;;6219665;28;20206;-80
2022/09/20 00:03:30;;;;;;;8.60;3.10;;;21.30;57.70;;;;;;6222074;28;20030;-80
2022/09/20 00:06:31;;;;;;;5.10;3.03;;;21.30;57.80;;;;;;6221921;28;20045;-80
2022/09/20 00:09:32;;;;;;;5.88;3.20;;;21.30;57.80;;;;;;6215664;28;20036;-79
2022/09/20 00:12:32;;;;;;;4.95;2.80;;;21.30;57.80;;;;;;6221676;28;20388;-77
2022/09/20 00:15:38;;;;;;;4.32;2.72;;;21.30;57.90;;;;;;6215503;28;20061;-80
2022/09/20 00:18:39;;;;;;;4.65;2.70;;;21.30;57.80;;;;;;6215736;28;20058;-79
2022/09/20 00:21:40;;;;;;;6.10;3.03;;;21.30;57.60;;;;;;6221540;28;20044;-78
2022/09/20 00:24:41;;;;;;;5.53;3.22;;;21.30;57.70;;;;;;6215694;28;20041;-80
2022/09/20 00:27:42;;;;;;;5.10;3.28;;;21.30;57.70;;;;;;6222451;28;20079;-79
2022/09/20 00:30:43;;;;;;;4.38;2.63;;;21.30;58.40;;;;;;6215049;28;20021;-80
2022/09/20 00:37:03;;;;;;;4.90;2.80;;;21.30;57.90;;;;;;6215079;28;20025;-78
2022/09/20 00:40:06;;;;;;;4.32;2.85;;;21.30;57.70;;;;;;6221492;28;20071;-79
2022/09/20 00:43:14;;;;;;;4.80;2.60;;;21.30;57.80;;;;;;6214943;28;20069;-79
2022/09/20 00:46:36;;;;;;;4.75;2.47;;;21.30;57.80;;;;;;6228873;27;20062;-80
2022/09/20 00:49:37;;;;;;;4.43;2.75;;;21.30;57.90;;;;;;6218467;28;20424;-80
2022/09/20 00:52:39;;;;;;;4.20;2.72;;;21.30;57.70;;;;;;6218261;28;20120;-80
2022/09/20 00:55:46;;;;;;;4.57;2.78;;;21.30;57.70;;;;;;6217504;28;20030;-80
2022/09/20 00:59:02;;;;;;;6.63;2.80;;;21.30;57.80;;;;;;6213391;28;20026;-79
2022/09/20 01:02:16;;;;;;;4.20;2.65;;;21.30;57.70;;;;;;6214837;28;20052;-80
2022/09/20 01:05:18;;;;;;;3.63;2.28;;;21.30;57.70;;;;;;6213437;28;20253;-79
2022/09/20 01:08:20;;;;;;;3.83;2.50;;;21.30;57.90;;;;;;6220740;28;20523;-79
2022/09/20 01:11:20;;;;;;;4.32;2.55;;;21.30;57.80;;;;;;6214528;28;20101;-79
2022/09/20 01:14:23;;;;;;;2.95;2.25;;;21.30;57.80;;;;;;6214803;28;20022;-80
2022/09/20 01:17:26;;;;;;;5.47;2.70;;;21.30;57.80;;;;;;6220868;28;20472;-79
2022/09/20 01:20:33;;;;;;;3.40;2.10;;;21.30;57.70;;;;;;6214318;28;20026;-79
2022/09/20 01:23:58;;;;;;;4.50;2.40;;;21.30;57.60;;;;;;6211095;28;20030;-79
2022/09/20 01:27:29;;;;;;;3.83;2.03;;;21.30;57.60;;;;;;6214432;28;20330;-79
2022/09/20 01:30:52;;;;;;;3.88;2.13;;;21.30;57.70;;;;;;6214368;28;20058;-79
2022/09/20 01:33:58;;;;;;;3.85;2.20;;;21.30;57.60;;;;;;6214313;28;20033;-80
2022/09/20 01:37:10;;;;;;;4.55;2.22;;;21.30;57.70;;;;;;6214312;28;20053;-79
2022/09/20 01:40:21;;;;;;;3.33;2.00;;;21.30;57.70;;;;;;6214175;28;20130;-78
2022/09/20 01:43:51;;;;;;;3.65;2.13;;;21.30;57.70;;;;;;6214096;28;20053;-79
2022/09/20 01:47:15;;;;;;;3.25;2.05;;;21.30;57.90;;;;;;6190266;28;20022;-79
2022/09/20 01:50:45;;;;;;;3.10;2.10;;;21.30;57.70;;;;;;6241466;28;20057;-79
2022/09/20 01:53:51;;;;;;;3.33;1.77;;;21.30;57.90;;;;;;6214504;28;20037;-79
2022/09/20 01:57:26;;;;;;;2.97;2.00;;;21.30;57.80;;;;;;6224730;28;20373;-80
2022/09/20 02:00:33;;;;;;;3.80;2.30;;;21.30;57.70;;;;;;6193472;28;20038;-78
2022/09/20 02:03:40;;;;;;;2.63;1.80;;;21.30;57.80;;;;;;6211037;28;20029;-79
2022/09/20 02:07:08;;;;;;;2.53;1.70;;;21.30;57.70;;;;;;6218289;28;20026;-79
2022/09/20 02:10:28;;;;;;;3.25;1.92;;;21.20;57.60;;;;;;6193491;28;20023;-77
2022/09/20 02:13:49;;;;;;;2.28;1.42;;;21.30;57.70;;;;;;6203931;28;20121;-79
2022/09/20 02:17:16;;;;;;;2.88;1.80;;;21.30;58.00;;;;;;6217688;28;20089;-79
2022/09/20 02:20:19;;;;;;;2.45;1.70;;;21.30;57.70;;;;;;6230518;28;20027;-79
2022/09/20 02:23:38;;;;;;;3.75;1.92;;;21.20;57.70;;;;;;6201174;28;20022;-78
2022/09/20 02:27:12;;;;;;;2.40;1.52;;;21.20;57.60;;;;;;6217115;28;20064;-77
2022/09/20 02:30:31;;;;;;;2.40;1.70;;;21.20;57.60;;;;;;6217337;28;20034;-79
2022/09/20 02:33:37;;;;;;;3.20;1.60;;;21.30;57.90;;;;;;6223326;28;20033;-78
2022/09/20 02:37:03;;;;;;;2.55;1.60;;;21.30;57.60;;;;;;6217239;28;20061;-79
2022/09/20 02:40:25;;;;;;;2.30;1.50;;;21.20;57.60;;;;;;6217502;28;20250;-79
2022/09/20 02:43:53;;;;;;;2.45;1.67;;;21.20;57.70;;;;;;6216460;28;20097;-78
2022/09/20 02:47:06;;;;;;;2.80;1.80;;;21.20;57.70;;;;;;6192987;28;20029;-79
2022/09/20 02:50:25;;;;;;;3.53;1.65;;;21.20;57.70;;;;;;6211498;28;20398;-79
2022/09/20 02:53:54;;;;;;;2.97;2.08;;;21.20;57.60;;;;;;6217262;28;20030;-78
2022/09/20 02:57:15;;;;;;;2.85;1.45;;;21.20;57.70;;;;;;6217422;28;20350;-79
2022/09/20 03:00:31;;;;;;;2.15;1.50;;;21.20;57.80;;;;;;6216446;28;20049;-79
2022/09/20 03:04:17;;;;;;;1.75;1.15;;;21.20;57.60;;;;;;6212761;28;20463;-79
2022/09/20 03:08:00;;;;;;;2.15;1.38;;;21.20;57.50;;;;;;6218016;28;20526;-79
2022/09/20 03:11:25;;;;;;;2.50;1.55;;;21.20;57.60;;;;;;6214388;28;20033;-78
2022/09/20 03:14:35;;;;;;;2.53;1.58;;;21.20;57.60;;;;;;6216159;28;20083;-79
2022/09/20 03:17:37;;;;;;;1.73;1.10;;;21.20;57.70;;;;;;6216521;28;20030;-79
2022/09/20 03:21:01;;;;;;;2.03;1.33;;;21.20;57.90;;;;;;6216156;28;20334;-80
2022/09/20 03:24:12;;;;;;;2.90;1.52;;;21.20;57.60;;;;;;6247099;28;20038;-79
2022/09/20 03:27:29;;;;;;;2.53;1.40;;;21.20;57.60;;;;;;6222967;28;20041;-77
2022/09/20 03:30:45;;;;;;;2.00;1.55;;;21.20;57.70;;;;;;6216865;28;20040;-79
2022/09/20 03:34:17;;;;;;;2.35;1.30;;;21.20;57.60;;;;;;6216432;28;20048;-79
2022/09/20 03:37:36;;;;;;;3.13;1.77;;;21.20;57.60;;;;;;6216608;28;20034;-80
2022/09/20 03:40:56;;;;;;;2.35;1.50;;;21.20;57.60;;;;;;6216612;28;20037;-80
2022/09/20 03:44:03;;;;;;;2.00;1.25;;;21.20;57.60;;;;;;6215697;28;20096;-80
2022/09/20 03:47:37;;;;;;;2.33;1.50;;;21.20;57.60;;;;;;6216347;28;20046;-79
2022/09/20 03:50:56;;;;;;;2.08;1.25;;;21.20;57.90;;;;;;6215613;28;20078;-80
2022/09/20 03:54:23;;;;;;;2.03;1.40;;;21.20;57.60;;;;;;6215635;28;20030;-80
2022/09/20 03:58:02;;;;;;;1.58;1.02;;;21.20;57.60;;;;;;6219297;28;20033;-80
2022/09/20 04:01:27;;;;;;;2.30;1.38;;;21.20;57.60;;;;;;6216213;28;20046;-79
2022/09/20 04:05:04;;;;;;;1.53;1.07;;;21.20;57.60;;;;;;6215718;28;20122;-79
2022/09/20 04:08:26;;;;;;;1.52;1.20;;;21.20;57.60;;;;;;6224913;28;20468;-79
2022/09/20 04:11:56;;;;;;;2.47;1.30;;;21.20;57.80;;;;;;6215621;28;20083;-79
2022/09/20 04:15:26;;;;;;;1.17;1.02;;;21.20;57.90;;;;;;6215404;28;20144;-77
2022/09/20 04:18:49;;;;;;;2.70;1.30;;;21.20;57.80;;;;;;6191407;28;20025;-79
2022/09/20 04:21:55;;;;;;;1.90;1.30;;;21.20;58.30;;;;;;6211809;28;20530;-78
2022/09/20 04:25:16;;;;;;;1.98;1.17;;;21.20;57.70;;;;;;6215666;28;20519;-79
2022/09/20 04:28:32;;;;;;;1.20;0.85;;;21.20;57.60;;;;;;6214058;28;20061;-79
2022/09/20 04:31:58;;;;;;;1.33;0.80;;;21.20;57.60;;;;;;6220292;28;20637;-79
2022/09/20 04:38:34;;;;;;;1.40;1.20;;;21.20;57.60;;;;;;6215479;28;20046;-79
2022/09/20 04:42:09;;;;;;;1.83;1.10;;;21.20;57.60;;;;;;6218946;28;20460;-79
2022/09/20 04:45:42;;;;;;;2.22;1.35;;;21.20;57.60;;;;;;6214926;28;20084;-79
2022/09/20 04:49:16;;;;;;;1.58;1.25;;;21.20;57.60;;;;;;6214880;28;20026;-77
2022/09/20 04:52:19;;;;;;;1.00;0.80;;;21.20;57.80;;;;;;6215104;28;20022;-78
2022/09/20 04:55:39;;;;;;;1.25;0.93;;;21.20;57.70;;;;;;6215306;28;20037;-79
2022/09/20 04:58:48;;;;;;;1.20;1.10;;;21.20;57.60;;;;;;6213707;28;20117;-78
2022/09/20 05:02:02;;;;;;;1.33;0.95;;;21.20;57.70;;;;;;6206133;28;20065;-79
2022/09/20 05:05:17;;;;;;;1.23;0.98;;;21.20;57.60;;;;;;6190398;28;20396;-79
2022/09/20 05:08:36;;;;;;;1.60;1.15;;;21.20;57.80;;;;;;6190555;28;20280;-80
2022/09/20 05:11:55;;;;;;;1.15;0.88;;;21.20;57.60;;;;;;6202077;28;20437;-79
2022/09/20 05:15:22;;;;;;;1.05;0.95;;;21.20;57.60;;;;;;6214609;28;20022;-79
2022/09/20 05:18:49;;;;;;;2.00;1.05;;;21.20;57.60;;;;;;6214137;28;20034;-78
2022/09/20 05:22:11;;;;;;;1.33;1.00;;;21.20;57.80;;;;;;6288408;28;20219;-80
2022/09/20 05:25:28;;;;;;;1.23;0.95;;;21.20;57.60;;;;;;6286884;28;20040;-77
2022/09/20 05:28:56;;;;;;;1.33;0.82;;;21.20;57.60;;;;;;6248207;28;20024;-79
2022/09/20 05:32:02;;;;;;;1.30;0.88;;;21.20;57.60;;;;;;6281097;28;20037;-80
2022/09/20 05:35:28;;;;;;;1.65;0.95;;;21.20;57.60;;;;;;6293694;28;20118;-79
2022/09/20 05:38:47;;;;;;;1.70;1.10;;;21.20;57.60;;;;;;6293170;28;20032;-78
2022/09/20 05:42:22;;;;;;;1.00;0.85;;;21.20;57.80;;;;;;6293547;28;20034;-79
2022/09/20 05:45:44;;;;;;;0.80;0.80;;;21.20;57.60;;;;;;6293562;28;20045;-79
2022/09/20 05:49:01;;;;;;;0.93;0.68;;;21.20;57.60;;;;;;6268879;28;20025;-79
2022/09/20 05:52:22;;;;;;;1.27;0.77;;;21.20;57.60;;;;;;6254947;28;20455;-79
2022/09/20 05:55:56;;;;;;;2.03;1.27;;;21.20;57.70;;;;;;6218060;28;20049;-78
2022/09/20 05:59:08;;;;;;;0.80;0.70;;;21.20;57.70;;;;;;6193737;28;20031;-78
2022/09/20 06:02:42;;;;;;;0.90;0.70;;;21.20;57.60;;;;;;6209273;28;20038;-79
2022/09/20 06:05:54;;;;;;;1.05;0.88;;;21.20;57.60;;;;;;6219789;28;20085;-79
2022/09/20 06:09:21;;;;;;;0.90;0.80;;;21.20;57.70;;;;;;6219691;28;20393;-78
2022/09/20 06:12:34;;;;;;;4.75;0.80;;;21.20;57.90;;;;;;6222021;28;20098;-78
2022/09/20 06:15:58;;;;;;;1.10;0.80;;;21.20;57.60;;;;;;6221695;28;20025;-78
2022/09/20 06:19:24;;;;;;;1.20;0.77;;;21.20;57.70;;;;;;6221849;28;20095;-79
2022/09/20 06:22:35;;;;;;;2.42;0.98;;;21.20;57.50;;;;;;6221786;28;20046;-79
2022/09/20 06:25:42;;;;;;;0.98;0.80;;;21.20;57.60;;;;;;6221857;28;20473;-78
2022/09/20 06:28:48;;;;;;;0.70;0.70;;;21.20;57.60;;;;;;6221725;28;20014;-78
2022/09/20 06:31:52;;;;;;;0.90;0.70;;;21.20;57.60;;;;;;6221894;28;20411;-78
2022/09/20 06:34:54;;;;;;;1.13;0.73;;;21.20;57.70;;;;;;6221583;28;20030;-79
2022/09/20 06:41:33;;;;;;;0.98;0.70;;;21.20;57.60;;;;;;6221921;28;20042;-78
2022/09/20 06:44:40;;;;;;;1.00;0.70;;;21.20;57.60;;;;;;6220925;28;20476;-78
2022/09/20 06:47:40;;;;;;;1.35;0.77;;;21.20;57.70;;;;;;6221196;28;20037;-78
2022/09/20 06:50:44;;;;;;;1.85;0.65;;;21.20;57.60;;;;;;6221137;28;20476;-78
2022/09/20 06:53:45;;;;;;;1.42;0.70;;;21.20;58.00;;;;;;6221392;28;20030;-79
2022/09/20 06:56:48;;;;;;;1.23;0.80;;;21.20;57.60;;;;;;6221169;28;20045;-78
2022/09/20 06:59:48;;;;;;;1.05;0.70;;;21.20;57.70;;;;;;6227450;28;20026;-78
2022/09/20 07:02:49;;;;;;;1.52;0.82;;;21.20;57.60;;;;;;6221506;28;20500;-78
2022/09/20 07:05:50;;;;;;;1.85;0.88;;;21.20;57.80;;;;;;6220967;28;20421;-78
2022/09/20 07:08:50;;;;;;;0.88;0.63;;;21.20;57.60;;;;;;6220728;28;20049;-78
2022/09/20 07:11:51;;;;;;;1.42;0.70;;;21.20;57.60;;;;;;6221427;28;20075;-78
2022/09/20 07:14:51;;;;;;;0.88;0.70;;;21.20;57.50;;;;;;6220747;28;20018;-78
2022/09/20 07:17:52;;;;;;;0.50;0.50;;;21.20;57.60;;;;;;6220835;28;20418;-78
2022/09/20 07:20:53;;;;;;;1.05;0.57;;;21.20;57.70;;;;;;6220838;28;20018;-77
2022/09/20 07:23:53;;;;;;;1.30;0.70;;;21.20;57.60;;;;;;6220387;28;20086;-79
2022/09/20 07:26:59;;;;;;;1.20;0.60;;;21.20;57.60;;;;;;6220765;28;20499;-78
2022/09/20 07:30:01;;;;;;;0.82;0.60;;;21.20;57.60;;;;;;6220103;28;20030;-78
2022/09/20 07:33:01;;;;;;;0.50;0.50;;;21.20;57.50;;;;;;6220543;28;20018;-77
2022/09/20 07:36:02;;;;;;;0.85;0.60;;;21.20;57.70;;;;;;6220496;28;20167;-78
2022/09/20 07:39:03;;;;;;;1.05;0.70;;;21.20;57.60;;;;;;6220340;28;20022;-77
2022/09/20 07:42:05;;;;;;;1.02;0.68;;;21.20;57.60;;;;;;6220441;28;20028;-78
2022/09/20 07:45:06;;;;;;;0.93;0.65;;;21.20;57.70;;;;;;6219944;28;20042;-79
2022/09/20 07:48:08;;;;;;;0.75;0.60;;;21.20;57.60;;;;;;6218366;28;20034;-79
2022/09/20 07:51:11;;;;;;;1.25;0.57;;;21.20;57.60;;;;;;6219863;28;20053;-78
2022/09/20 07:54:12;;;;;;;0.88;0.70;;;21.20;57.70;;;;;;6219761;28;20051;-78
2022/09/20 07:57:13;;;;;;;0.47;0.47;;;21.20;57.50;;;;;;6226791;28;20071;-79
2022/09/20 08:00:14;;;;;;;1.20;0.60;;;21.20;57.60;;;;;;6220040;28;20029;-79
2022/09/20 08:03:14;;;;;;;0.60;0.50;;;21.10;57.40;;;;;;6219945;28;20392;-77
2022/09/20 08:06:15;;;;;;;0.75;0.60;;;21.20;57.70;;;;;;6294274;28;20036;-78
2022/09/20 08:09:15;;;;;;;0.57;0.50;;;21.20;57.60;;;;;;6294813;28;20086;-78
2022/09/20 08:12:17;;;;;;;1.25;0.60;;;21.20;57.60;;;;;;6294913;28;20029;-78
2022/09/20 08:15:18;;;;;;;0.68;0.60;;;21.10;57.60;;;;;;6294413;28;20060;-78
2022/09/20 08:18:18;;;;;;;0.73;0.52;;;21.10;57.40;;;;;;6294378;28;20031;-79
2022/09/20 08:21:19;;;;;;;0.55;0.52;;;21.20;57.70;;;;;;6294268;28;20037;-77
2022/09/20 08:24:20;;;;;;;1.08;0.70;;;21.20;57.60;;;;;;6291486;28;20419;-78
2022/09/20 08:27:21;;;;;;;0.85;0.70;;;21.10;57.50;;;;;;6289143;28;20047;-78
2022/09/20 08:30:22;;;;;;;0.90;0.60;;;21.10;57.50;;;;;;6290725;28;20032;-78
2022/09/20 08:33:23;;;;;;;3.08;0.70;;;21.10;57.50;;;;;;6294111;28;20028;-77
2022/09/20 08:36:25;;;;;;;0.90;0.70;;;21.20;57.70;;;;;;6270272;28;20388;-78
2022/09/20 08:39:26;;;;;;;0.50;0.50;;;21.10;57.60;;;;;;6219472;28;20025;-79
2022/09/20 08:42:37;;;;;;;1.23;0.60;;;21.10;57.50;;;;;;6219333;28;20030;-77
2022/09/20 08:45:39;;;;;;;0.63;0.50;;;21.10;57.50;;;;;;6218947;28;20227;-79
2022/09/20 08:48:40;;;;;;;0.60;0.60;;;21.10;57.40;;;;;;6219544;28;20434;-79
2022/09/20 08:51:42;;;;;;;0.90;0.55;;;21.10;57.50;;;;;;6218898;28;20060;-78
2022/09/20 08:54:42;;;;;;;0.73;0.55;;;21.10;57.50;;;;;;6219081;28;20018;-79
2022/09/20 08:57:47;;;;;;;0.93;0.52;;;21.10;57.50;;;;;;6218962;28;20038;-79
2022/09/20 09:00:48;;;;;;;0.70;0.60;;;21.10;57.50;;;;;;6219179;28;20092;-79
2022/09/20 09:03:50;;;;;;;1.25;0.63;;;21.10;57.40;;;;;;6217799;28;20110;-78
2022/09/20 09:06:51;;;;;;;0.65;0.40;;;21.10;57.40;;;;;;6224899;28;20045;-79
2022/09/20 09:09:54;;;;;;;0.40;0.40;;;21.10;57.30;;;;;;6218717;28;20411;-78
2022/09/20 09:12:55;;;;;;;0.93;0.52;;;21.10;57.30;;;;;;6218671;28;20018;-79
2022/09/20 09:16:08;;;;;;;0.57;0.50;;;21.10;57.30;;;;;;6218609;28;20024;-79
2022/09/20 09:19:30;;;;;;;2.65;0.60;;;21.10;57.40;;;;;;6219066;28;20400;-79
2022/09/20 09:22:42;;;;;;;0.63;0.50;;;21.10;57.40;;;;;;6201002;28;20068;-79
2022/09/20 09:25:43;;;;;;;0.55;0.50;;;21.10;57.40;;;;;;6218384;28;20365;-79
2022/09/20 09:28:44;;;;;;;1.38;0.50;;;21.10;57.40;;;;;;6218772;28;20104;-79
2022/09/20 09:31:46;;;;;;;1.05;0.75;;;21.10;57.40;;;;;;6218389;28;20495;-79
2022/09/20 09:34:47;;;;;;;0.45;0.40;;;21.10;57.40;;;;;;6218466;28;20438;-79
2022/09/20 09:38:00;;;;;;;1.05;0.60;;;21.10;57.30;;;;;;6218422;28;20025;-79
2022/09/20 09:41:04;;;;;;;0.70;0.60;;;21.10;57.40;;;;;;6218284;28;20419;-78
2022/09/20 09:44:26;;;;;;;0.60;0.50;;;21.10;57.50;;;;;;6218007;28;20113;-79
2022/09/20 09:47:28;;;;;;;0.85;0.50;;;21.10;57.30;;;;;;6218094;28;20378;-78
2022/09/20 09:50:32;;;;;;;0.55;0.40;;;21.10;57.40;;;;;;6216861;28;20026;-78
2022/09/20 09:53:34;;;;;;;1.13;0.60;;;21.10;57.40;;;;;;6216881;28;20515;-78
2022/09/20 09:56:47;;;;;;;1.48;0.70;;;21.20;57.50;;;;;;6217631;28;20105;-78
2022/09/20 10:00:11;;;;;;;0.40;0.40;;;21.10;57.40;;;;;;6217885;28;20022;-79
2022/09/20 10:03:31;;;;;;;0.47;0.45;;;21.10;57.40;;;;;;6193768;28;20022;-79
2022/09/20 10:07:01;;;;;;;1.02;0.63;;;21.10;57.40;;;;;;6205533;28;20042;-79
2022/09/20 10:10:32;;;;;;;0.45;0.35;;;21.10;57.30;;;;;;6217826;28;20022;-79
2022/09/20 10:14:04;;;;;;;0.60;0.55;;;21.10;57.30;;;;;;6215216;28;20026;-78
2022/09/20 10:17:30;;;;;;;0.65;0.45;;;21.10;57.40;;;;;;6221109;28;20144;-79
2022/09/20 10:20:40;;;;;;;0.73;0.68;;;21.10;57.40;;;;;;6221887;28;20053;-79
2022/09/20 10:23:51;;;;;;;0.50;0.50;;;21.10;57.40;;;;;;6226945;28;20026;-79
2022/09/20 10:27:07;;;;;;;0.85;0.50;;;21.10;57.40;;;;;;6228096;28;20519;-79
2022/09/20 10:30:16;;;;;;;0.60;0.43;;;21.10;57.50;;;;;;6221947;28;20057;-78
2022/09/20 10:33:58;;;;;;;1.10;0.68;;;21.10;57.50;;;;;;6228000;28;20037;-78
2022/09/20 10:37:00;;;;;;;0.82;0.50;;;21.10;57.40;;;;;;6294696;28;20040;-77
2022/09/20 10:40:08;;;;;;;0.63;0.50;;;21.10;57.40;;;;;;6221223;28;20018;-79
2022/09/20 10:43:19;;;;;;;0.50;0.43;;;21.10;57.50;;;;;;6221359;28;20046;-79
2022/09/20 10:46:34;;;;;;;0.90;0.60;;;21.10;57.40;;;;;;6221448;28;20062;-79
2022/09/20 10:49:59;;;;;;;0.93;0.52;;;21.10;57.30;;;;;;6221502;28;20022;-77
2022/09/20 10:53:24;;;;;;;0.87;0.60;;;21.10;57.40;;;;;;6220654;28;20026;-79
2022/09/20 10:56:38;;;;;;;0.68;0.50;;;21.10;57.40;;;;;;6221357;28;20025;-79
2022/09/20 10:59:57;;;;;;;1.20;0.80;;;21.10;57.50;;;;;;6221270;28;20034;-78
2022/09/20 11:03:25;;;;;;;0.60;0.52;;;21.10;57.40;;;;;;6221102;28;20029;-77
2022/09/20 11:06:48;;;;;;;1.00;0.60;;;21.10;57.40;;;;;;6220967;28;20065;-78
2022/09/20 11:09:56;;;;;;;0.75;0.60;;;21.10;57.50;;;;;;6220953;28;20022;-79
2022/09/20 11:13:01;;;;;;;0.47;0.47;;;21.10;57.40;;;;;;6220981;28;20430;-78
2022/09/20 11:16:15;;;;;;;0.85;0.70;;;21.10;57.50;;;;;;6220721;28;20026;-78
2022/09/20 11:19:46;;;;;;;0.88;0.60;;;21.10;57.60;;;;;;6201420;28;20358;-78
2022/09/20 11:22:59;;;;;;;0.52;0.52;;;21.10;57.50;;;;;;6208103;28;20029;-78
2022/09/20 11:26:08;;;;;;;1.10;0.60;;;21.10;57.60;;;;;;6221549;28;20695;-78
2022/09/20 11:29:19;;;;;;;0.82;0.52;;;21.10;57.50;;;;;;6220316;28;20033;-78
2022/09/20 11:32:27;;;;;;;0.50;0.50;;;21.10;57.60;;;;;;6220317;28;20101;-78
2022/09/20 11:35:39;;;;;;;0.50;0.50;;;21.10;57.60;;;;;;6224771;28;20052;-78
2022/09/20 11:38:45;;;;;;;0.50;0.50;;;21.10;57.50;;;;;;6220552;28;20025;-78
2022/09/20 11:41:47;;;;;;;0.90;0.60;;;21.10;57.60;;;;;;6220536;28;20026;-78
2022/09/20 11:44:49;;;;;;;0.47;0.40;;;21.10;57.50;;;;;;6218960;28;20075;-79
2022/09/20 11:47:59;;;;;;;1.33;0.57;;;21.10;57.50;;;;;;6220404;28;20018;-79
2022/09/20 11:51:15;;;;;;;0.65;0.45;;;21.10;57.50;;;;;;6220514;28;20049;-78
2022/09/20 11:54:35;;;;;;;1.08;0.50;;;21.10;57.60;;;;;;6219732;28;20097;-78
2022/09/20 11:57:36;;;;;;;0.70;0.52;;;21.10;57.60;;;;;;6219654;28;20431;-78
2022/09/20 12:00:42;;;;;;;0.50;0.50;;;21.10;57.60;;;;;;6220369;28;20033;-78
2022/09/20 12:03:48;;;;;;;0.70;0.50;;;21.10;57.50;;;;;;6218753;28;20095;-79
2022/09/20 12:07:06;;;;;;;0.47;0.35;;;21.10;57.50;;;;;;6220083;28;20109;-78
2022/09/20 12:10:21;;;;;;;1.25;0.50;;;21.10;57.60;;;;;;6195741;28;20145;-78
2022/09/20 12:13:24;;;;;;;0.65;0.57;;;21.10;57.60;;;;;;6204856;28;20090;-78
2022/09/20 12:16:43;;;;;;;0.57;0.55;;;21.10;57.60;;;;;;6217387;28;20108;-77
2022/09/20 12:19:44;;;;;;;0.50;0.50;;;21.10;57.50;;;;;;6219436;28;20026;-79
2022/09/20 12:22:44;;;;;;;1.05;0.60;;;21.10;57.50;;;;;;6219747;28;20053;-78
2022/09/20 12:26:03;;;;;;;1.23;0.68;;;21.10;57.40;;;;;;6225584;28;20430;-78
2022/09/20 12:29:24;;;;;;;0.95;0.60;;;21.10;57.40;;;;;;6219095;28;20075;-78
2022/09/20 12:32:40;;;;;;;0.85;0.50;;;21.10;57.40;;;;;;6219100;28;20380;-79
2022/09/20 12:36:14;;;;;;;0.60;0.47;;;21.10;57.30;;;;;;6194103;28;20110;-78
2022/09/20 12:39:17;;;;;;;0.55;0.43;;;21.10;57.40;;;;;;6206981;28;20029;-78
2022/09/20 12:42:18;;;;;;;0.60;0.45;;;21.10;57.40;;;;;;6218357;28;20030;-78
2022/09/20 12:45:18;;;;;;;0.70;0.40;;;21.10;57.40;;;;;;6218194;28;20474;-79
2022/09/20 12:48:19;;;;;;;0.82;0.45;;;21.10;57.40;;;;;;6219041;28;20114;-78
2022/09/20 12:54:53;;;;;;;0.90;0.60;;;21.10;57.40;;;;;;6219355;28;20487;-78
2022/09/20 12:58:01;;;;;;;0.75;0.50;;;21.10;57.50;;;;;;6224398;28;20057;-77
2022/09/20 13:01:04;;;;;;;0.40;0.40;;;21.10;57.40;;;;;;6195129;28;20027;-78
2022/09/20 13:04:42;;;;;;;1.15;0.43;;;21.10;57.50;;;;;;6203489;28;20104;-79
2022/09/20 13:07:53;;;;;;;0.75;0.50;;;21.10;57.50;;;;;;6219001;28;20482;-78
2022/09/20 13:11:08;;;;;;;0.40;0.40;;;21.10;57.40;;;;;;6218665;28;20029;-78
2022/09/20 13:14:13;;;;;;;0.80;0.40;;;21.10;57.40;;;;;;6218540;28;20061;-79
2022/09/20 13:17:26;;;;;;;0.32;0.30;;;21.10;57.50;;;;;;6219079;28;20040;-78
2022/09/20 13:20:30;;;;;;;0.88;0.50;;;21.10;57.30;;;;;;6293525;28;20119;-78
2022/09/20 13:23:33;;;;;;;0.67;0.50;;;21.10;57.40;;;;;;6293097;28;20471;-79
2022/09/20 13:26:44;;;;;;;0.63;0.50;;;21.10;57.40;;;;;;6293383;28;20788;-78
2022/09/20 13:29:45;;;;;;;0.80;0.45;;;21.10;57.30;;;;;;6293643;28;20036;-79
2022/09/20 13:32:47;;;;;;;1.15;0.52;;;21.10;57.30;;;;;;6293175;28;20584;-78
2022/09/20 13:35:53;;;;;;;1.45;0.50;;;21.10;57.40;;;;;;6293184;28;20921;-79
2022/09/20 13:38:55;;;;;;;0.50;0.40;;;21.10;57.50;;;;;;6292851;28;20028;-79
2022/09/20 13:42:01;;;;;;;1.08;0.55;;;21.10;57.50;;;;;;6293237;28;20472;-79
2022/09/20 13:45:03;;;;;;;0.52;0.40;;;21.10;57.50;;;;;;6293003;28;20044;-78
2022/09/20 13:48:08;;;;;;;0.52;0.50;;;21.10;57.60;;;;;;6290246;28;20032;-77
2022/09/20 13:51:19;;;;;;;;;;;21.10;57.50;;;;;;6298009;28;20067;-79
2022/09/20 13:54:31;;;;;;;0.40;0.40;;;21.10;57.40;;;;;;6325812;28;19904;-78
2022/09/20 13:57:32;;;;;;;0.57;0.50;;;21.10;57.40;;;;;;6326083;28;20025;-78
2022/09/20 14:00:36;;;;;;;0.55;0.28;;;21.10;57.50;;;;;;6325864;28;20093;-78
2022/09/20 14:03:38;;;;;;;0.55;0.40;;;21.10;57.40;;;;;;6325653;28;20030;-79
2022/09/20 14:06:39;;;;;;;0.60;0.50;;;21.10;57.40;;;;;;6325595;28;20594;-78
2022/09/20 14:09:40;;;;;;;0.60;0.50;;;21.10;57.40;;;;;;6325512;28;20012;-78
2022/09/20 14:12:48;;;;;;;0.40;0.40;;;21.10;57.50;;;;;;6325843;28;20020;-78
2022/09/20 14:15:49;;;;;;;0.93;0.40;;;21.10;57.40;;;;;;6325380;28;20016;-78
2022/09/20 14:18:50;;;;;;;0.35;0.35;;;21.10;57.50;;;;;;6322390;28;20063;-78
2022/09/20 14:21:51;;;;;;;0.40;0.30;;;21.10;57.40;;;;;;6321417;28;20027;-78
2022/09/20 14:25:19;;;;;;;0.50;0.32;;;21.10;57.40;;;;;;6322006;28;20021;-78
2022/09/20 14:28:24;;;;;;;0.60;0.55;;;21.10;57.40;;;;;;6324554;28;20071;-79
2022/09/20 14:31:30;;;;;;;0.60;0.45;;;21.10;57.40;;;;;;6325301;28;20032;-78
2022/09/20 14:34:33;;;;;;;0.63;0.47;;;21.10;57.40;;;;;;6325282;28;20024;-78
2022/09/20 14:37:40;;;;;;;0.70;0.50;;;21.10;57.40;;;;;;6300075;28;20021;-78
2022/09/20 14:40:42;;;;;;;0.82;0.40;;;21.10;57.40;;;;;;6307222;28;20111;-78
2022/09/20 14:43:44;;;;;;;0.93;0.50;;;21.10;57.30;;;;;;6275405;28;20049;-79
2022/09/20 14:46:45;;;;;;;0.98;0.40;;;21.10;57.40;;;;;;6221264;28;20033;-78
2022/09/20 14:49:45;;;;;;;0.45;0.43;;;21.10;57.40;;;;;;6221599;28;20029;-78
2022/09/20 14:52:46;;;;;;;0.35;0.32;;;21.10;57.40;;;;;;6227495;28;20030;-78
2022/09/20 14:56:06;;;;;;;0.35;0.30;;;21.10;57.40;;;;;;6227428;28;20034;-78
2022/09/20 14:59:10;;;;;;;1.23;0.50;;;21.10;57.40;;;;;;6221193;28;20361;-78
2022/09/20 15:02:13;;;;;;;0.43;0.40;;;21.10;57.40;;;;;;6221261;28;20476;-78
2022/09/20 15:05:26;;;;;;;0.40;0.40;;;21.10;57.60;;;;;;6220885;28;20424;-78
2022/09/20 15:08:26;;;;;;;0.77;0.50;;;21.10;57.40;;;;;;6220995;28;20489;-78
2022/09/20 15:11:28;;;;;;;0.28;0.28;;;21.10;57.50;;;;;;6219646;28;20117;-78
2022/09/20 15:14:29;;;;;;;0.57;0.40;;;21.10;57.50;;;;;;6220446;28;20030;-78
2022/09/20 15:17:30;;;;;;;0.32;0.30;;;21.10;58.10;;;;;;6220943;28;20041;-79
2022/09/20 15:20:30;;;;;;;0.47;0.47;;;21.10;57.40;;;;;;6220197;28;20022;-79
2022/09/20 15:23:31;;;;;;;0.45;0.40;;;21.10;57.50;;;;;;6219997;28;20030;-79
2022/09/20 15:26:33;;;;;;;0.65;0.40;;;21.10;57.50;;;;;;6219988;28;20041;-79
2022/09/20 15:29:33;;;;;;;0.45;0.40;;;21.10;57.40;;;;;;6222587;28;20523;-78
2022/09/20 15:32:34;;;;;;;0.60;0.40;;;21.10;57.40;;;;;;6220529;28;20026;-78
2022/09/20 15:35:35;;;;;;;0.52;0.45;;;21.10;57.40;;;;;;6227180;28;20026;-79
2022/09/20 15:38:35;;;;;;;0.88;0.40;;;21.10;57.40;;;;;;6220662;28;20022;-78
2022/09/20 15:41:36;;;;;;;0.40;0.30;;;21.10;57.50;;;;;;6222663;28;20030;-79
2022/09/20 15:44:37;;;;;;;0.60;0.40;;;21.10;57.40;;;;;;6216031;28;20050;-78
2022/09/20 15:47:38;;;;;;;0.32;0.32;;;21.10;57.40;;;;;;6220602;28;20026;-79
2022/09/20 15:50:42;;;;;;;0.63;0.50;;;21.10;57.50;;;;;;6220278;28;20206;-78
2022/09/20 15:53:56;;;;;;;0.40;0.38;;;21.10;57.40;;;;;;6218556;28;20057;-79
2022/09/20 15:56:57;;;;;;;0.28;0.28;;;21.10;57.40;;;;;;6219866;28;20404;-78
2022/09/20 15:59:58;;;;;;;0.80;0.45;;;21.10;57.50;;;;;;6224739;28;20037;-79
2022/09/20 16:02:58;;;;;;;0.35;0.35;;;21.10;57.40;;;;;;6220072;28;20025;-79
2022/09/20 16:06:04;;;;;;;0.60;0.38;;;21.10;57.40;;;;;;6219932;28;20030;-78
2022/09/20 16:09:06;;;;;;;0.70;0.32;;;21.10;57.50;;;;;;6195852;28;20103;-78
2022/09/20 16:12:08;;;;;;;0.85;0.40;;;21.10;57.50;;;;;;6203437;28;20025;-79
2022/09/20 16:15:09;;;;;;;0.57;0.50;;;21.10;57.50;;;;;;6219771;28;20022;-79
2022/09/20 16:21:29;;;;;;;0.50;0.40;;;21.10;57.50;;;;;;6218262;28;20030;-78
2022/09/20 16:24:32;;;;;;;0.30;0.25;;;21.10;57.50;;;;;;6218230;28;20388;-79
2022/09/20 16:27:33;;;;;;;0.55;0.40;;;21.10;57.50;;;;;;6218243;28;20400;-79
2022/09/20 16:30:34;;;;;;;0.38;0.30;;;21.10;57.60;;;;;;6218242;28;20132;-78
2022/09/20 16:33:35;;;;;;;0.30;0.30;;;21.10;57.50;;;;;;6218389;28;20048;-79
2022/09/20 16:36:35;;;;;;;0.30;0.30;;;21.10;57.60;;;;;;6224166;28;20029;-79
2022/09/20 16:39:36;;;;;;;0.50;0.40;;;21.10;57.60;;;;;;6218067;28;20022;-80
2022/09/20 16:42:37;;;;;;;0.40;0.40;;;21.10;57.60;;;;;;6217662;28;20448;-79
2022/09/20 16:45:38;;;;;;;0.60;0.40;;;21.10;57.50;;;;;;6217507;28;20040;-81
2022/09/20 16:48:39;;;;;;;0.70;0.38;;;21.10;57.60;;;;;;6217858;28;20101;-79